sensor_id;sensor_type;location;lat;lon;timestamp;pressure;altitude;pressure_sealevel;temperature;humidity
72409;BME280;60402;48.082;11.628;2023-05-12T00:01:53;95019.84;;;8.82;100.00
72409;BME280;60402;48.082;11.628;2023-05-12T00:04:39;95026.50;;;8.88;100.00
72409;BME280;60402;48.082;11.628;2023-05-12T00:07:25;95013.53;;;8.78;100.00
72409;BME280;60402;48.082;11.628;2023-05-12T00:10:12;95025.72;;;8.87;100.00
72409;BME280;60402;48.082;11.628;2023-05-12T00:12:58;95022.38;;;8.92;100.00
72409;BME280;60402;48.082;11.628;2023-05-12T00:15:44;95019.78;;;8.98;100.00
72409;BME280;60402;48.082;11.628;2023-05-12T00:18:30;95025.72;;;8.87;100.00
72409;BME280;60402;48.082;11.628;2023-05-12T00:21:15;95025.72;;;8.87;100.00
72409;BME280;60402;48.082;11.628;2023-05-12T00:24:01;95023.91;;;8.81;100.00
72409;BME280;60402;48.082;11.628;2023-05-12T00:26:47;95002.31;;;8.61;100.00
72409;BME280;60402;48.082;11.628;2023-05-12T00:29:33;95007.41;;;8.66;100.00
72409;BME280;60402;48.082;11.628;2023-05-12T00:32:18;95015.09;;;8.79;100.00
72409;BME280;60402;48.082;11.628;2023-05-12T00:35:04;95012.97;;;8.83;100.00
72409;BME280;60402;48.082;11.628;2023-05-12T00:37:50;95012.88;;;8.86;100.00
72409;BME280;60402;48.082;11.628;2023-05-12T00:40:36;95019.63;;;8.89;100.00
72409;BME280;60402;48.082;11.628;2023-05-12T00:43:21;95015.47;;;8.81;100.00
72409;BME280;60402;48.082;11.628;2023-05-12T00:46:07;95018.28;;;8.81;100.00
72409;BME280;60402;48.082;11.628;2023-05-12T00:48:53;95012.97;;;8.83;100.00
72409;BME280;60402;48.082;11.628;2023-05-12T00:51:39;95013.53;;;8.78;100.00
72409;BME280;60402;48.082;11.628;2023-05-12T00:54:25;95007.44;;;8.79;100.00
72409;BME280;60402;48.082;11.628;2023-05-12T00:57:11;95008.56;;;8.53;100.00
72409;BME280;60402;48.082;11.628;2023-05-12T00:59:57;94992.47;;;8.53;100.00
72409;BME280;60402;48.082;11.628;2023-05-12T01:02:43;94993.03;;;8.61;100.00
72409;BME280;60402;48.082;11.628;2023-05-12T01:05:59;94994.72;;;8.58;100.00
72409;BME280;60402;48.082;11.628;2023-05-12T01:08:40;95004.47;;;8.70;100.00
72409;BME280;60402;48.082;11.628;2023-05-12T01:11:26;95006.16;;;8.67;100.00
72409;BME280;60402;48.082;11.628;2023-05-12T01:14:12;95007.09;;;8.77;100.00
72409;BME280;60402;48.082;11.628;2023-05-12T01:16:59;95006.00;;;8.87;100.00
72409;BME280;60402;48.082;11.628;2023-05-12T01:19:53;94999.13;;;8.88;100.00
72409;BME280;60402;48.082;11.628;2023-05-12T01:22:41;94983.41;;;8.75;100.00
72409;BME280;60402;48.082;11.628;2023-05-12T01:25:30;94988.72;;;8.73;100.00
72409;BME280;60402;48.082;11.628;2023-05-12T01:28:17;94989.16;;;8.71;100.00
72409;BME280;60402;48.082;11.628;2023-05-12T01:31:04;94993.75;;;8.65;100.00
72409;BME280;60402;48.082;11.628;2023-05-12T01:33:50;94996.13;;;8.66;100.00
72409;BME280;60402;48.082;11.628;2023-05-12T01:36:36;94981.59;;;8.68;100.00
72409;BME280;60402;48.082;11.628;2023-05-12T01:39:21;94987.22;;;8.68;100.00
72409;BME280;60402;48.082;11.628;2023-05-12T01:42:07;94975.63;;;8.66;100.00
72409;BME280;60402;48.082;11.628;2023-05-12T01:44:53;94993.09;;;8.74;100.00
72409;BME280;60402;48.082;11.628;2023-05-12T01:47:38;94982.63;;;8.74;100.00
72409;BME280;60402;48.082;11.628;2023-05-12T01:50:24;94984.22;;;8.75;100.00
72409;BME280;60402;48.082;11.628;2023-05-12T01:53:10;95003.28;;;8.84;100.00
72409;BME280;60402;48.082;11.628;2023-05-12T01:55:55;94983.00;;;8.76;100.00
72409;BME280;60402;48.082;11.628;2023-05-12T01:58:41;94994.03;;;8.83;100.00
72409;BME280;60402;48.082;11.628;2023-05-12T02:01:27;94984.16;;;8.62;100.00
72409;BME280;60402;48.082;11.628;2023-05-12T02:04:13;94980.03;;;8.67;100.00
72409;BME280;60402;48.082;11.628;2023-05-12T02:06:59;95001.06;;;8.62;100.00
72409;BME280;60402;48.082;11.628;2023-05-12T02:09:45;94985.94;;;8.56;100.00
72409;BME280;60402;48.082;11.628;2023-05-12T02:12:30;94998.09;;;8.53;100.00
72409;BME280;60402;48.082;11.628;2023-05-12T02:15:18;94989.66;;;8.37;100.00
72409;BME280;60402;48.082;11.628;2023-05-12T02:18:04;94999.41;;;8.32;100.00
72409;BME280;60402;48.082;11.628;2023-05-12T02:20:50;94992.09;;;8.18;100.00
72409;BME280;60402;48.082;11.628;2023-05-12T02:23:35;95000.38;;;8.26;100.00
72409;BME280;60402;48.082;11.628;2023-05-12T02:26:21;94992.94;;;8.19;100.00
72409;BME280;60402;48.082;11.628;2023-05-12T02:29:07;94994.91;;;8.18;100.00
72409;BME280;60402;48.082;11.628;2023-05-12T02:31:52;94986.22;;;8.13;100.00
72409;BME280;60402;48.082;11.628;2023-05-12T02:34:38;94990.97;;;8.16;100.00
72409;BME280;60402;48.082;11.628;2023-05-12T02:37:24;94991.50;;;8.11;100.00
72409;BME280;60402;48.082;11.628;2023-05-12T02:40:10;95001.53;;;8.12;100.00
72409;BME280;60402;48.082;11.628;2023-05-12T02:42:55;95007.88;;;8.16;100.00
72409;BME280;60402;48.082;11.628;2023-05-12T02:45:41;95003.38;;;8.18;100.00
72409;BME280;60402;48.082;11.628;2023-05-12T02:48:27;95002.94;;;8.20;100.00
72409;BME280;60402;48.082;11.628;2023-05-12T02:51:12;94996.28;;;8.14;100.00
72409;BME280;60402;48.082;11.628;2023-05-12T02:53:58;94990.72;;;8.10;100.00
72409;BME280;60402;48.082;11.628;2023-05-12T02:56:44;94995.28;;;8.20;100.00
72409;BME280;60402;48.082;11.628;2023-05-12T02:59:29;94999.97;;;8.11;100.00
72409;BME280;60402;48.082;11.628;2023-05-12T03:02:15;95004.00;;;8.10;100.00
72409;BME280;60402;48.082;11.628;2023-05-12T03:05:01;95012.34;;;8.13;100.00
72409;BME280;60402;48.082;11.628;2023-05-12T03:07:47;94995.56;;;8.10;100.00
72409;BME280;60402;48.082;11.628;2023-05-12T03:10:34;95011.47;;;8.16;100.00
72409;BME280;60402;48.082;11.628;2023-05-12T03:13:19;95014.28;;;8.16;100.00
72409;BME280;60402;48.082;11.628;2023-05-12T03:16:05;95013.78;;;8.05;100.00
72409;BME280;60402;48.082;11.628;2023-05-12T03:18:51;95015.34;;;8.06;100.00
72409;BME280;60402;48.082;11.628;2023-05-12T03:21:36;95003.84;;;8.01;100.00
72409;BME280;60402;48.082;11.628;2023-05-12T03:24:22;95017.19;;;7.97;100.00
72409;BME280;60402;48.082;11.628;2023-05-12T03:27:08;95018.06;;;7.93;100.00
72409;BME280;60402;48.082;11.628;2023-05-12T03:29:54;95008.03;;;7.92;100.00
72409;BME280;60402;48.082;11.628;2023-05-12T03:32:39;95016.59;;;8.05;100.00
72409;BME280;60402;48.082;11.628;2023-05-12T03:35:25;95012.88;;;8.08;100.00
72409;BME280;60402;48.082;11.628;2023-05-12T03:38:11;94999.34;;;8.03;100.00
72409;BME280;60402;48.082;11.628;2023-05-12T03:41:06;95018.88;;;8.10;100.00
72409;BME280;60402;48.082;11.628;2023-05-12T03:43:52;95012.28;;;8.01;100.00
72409;BME280;60402;48.082;11.628;2023-05-12T03:46:37;94996.94;;;7.85;100.00
72409;BME280;60402;48.082;11.628;2023-05-12T03:49:23;94993.72;;;7.87;100.00
72409;BME280;60402;48.082;11.628;2023-05-12T03:52:09;94993.53;;;7.94;100.00
72409;BME280;60402;48.082;11.628;2023-05-12T03:54:54;95000.66;;;7.99;100.00
72409;BME280;60402;48.082;11.628;2023-05-12T03:57:40;94999.59;;;8.09;100.00
72409;BME280;60402;48.082;11.628;2023-05-12T04:00:25;94999.50;;;8.12;100.00
72409;BME280;60402;48.082;11.628;2023-05-12T04:03:11;94986.25;;;7.97;100.00
72409;BME280;60402;48.082;11.628;2023-05-12T04:06:01;94994.22;;;7.98;100.00
72409;BME280;60402;48.082;11.628;2023-05-12T04:08:47;95015.97;;;8.14;100.00
72409;BME280;60402;48.082;11.628;2023-05-12T04:11:33;95007.84;;;8.32;100.00
72409;BME280;60402;48.082;11.628;2023-05-12T04:14:18;94994.31;;;8.27;100.00
72409;BME280;60402;48.082;11.628;2023-05-12T04:17:04;94999.75;;;8.34;100.00
72409;BME280;60402;48.082;11.628;2023-05-12T04:19:50;94999.88;;;8.47;100.00
72409;BME280;60402;48.082;11.628;2023-05-12T04:22:37;94991.78;;;8.33;100.00
72409;BME280;60402;48.082;11.628;2023-05-12T04:25:22;95006.47;;;8.40;100.00
72409;BME280;60402;48.082;11.628;2023-05-12T04:28:08;95009.19;;;8.44;100.00
72409;BME280;60402;48.082;11.628;2023-05-12T04:30:54;95001.09;;;8.46;100.00
72409;BME280;60402;48.082;11.628;2023-05-12T04:33:40;95000.47;;;8.55;100.00
72409;BME280;60402;48.082;11.628;2023-05-12T04:36:25;95008.47;;;8.56;100.00
72409;BME280;60402;48.082;11.628;2023-05-12T04:39:11;95009.22;;;8.73;100.00
72409;BME280;60402;48.082;11.628;2023-05-12T04:41:59;95011.50;;;8.78;100.00
72409;BME280;60402;48.082;11.628;2023-05-12T04:44:45;95014.41;;;8.75;100.00
72409;BME280;60402;48.082;11.628;2023-05-12T04:47:31;95002.59;;;8.80;100.00
72409;BME280;60402;48.082;11.628;2023-05-12T04:50:16;95006.66;;;8.79;100.00
72409;BME280;60402;48.082;11.628;2023-05-12T04:53:02;95023.59;;;8.91;100.00
72409;BME280;60402;48.082;11.628;2023-05-12T04:55:47;95034.88;;;8.91;100.00
72409;BME280;60402;48.082;11.628;2023-05-12T04:58:34;95037.25;;;8.93;100.00
72409;BME280;60402;48.082;11.628;2023-05-12T05:01:20;95043.28;;;9.08;100.00
72409;BME280;60402;48.082;11.628;2023-05-12T05:04:05;95033.53;;;8.96;100.00
72409;BME280;60402;48.082;11.628;2023-05-12T05:06:51;95031.75;;;9.02;100.00
72409;BME280;60402;48.082;11.628;2023-05-12T05:09:37;95016.97;;;8.98;100.00
72409;BME280;60402;48.082;11.628;2023-05-12T05:12:22;95039.75;;;9.33;100.00
72409;BME280;60402;48.082;11.628;2023-05-12T05:15:09;95033.34;;;9.45;100.00
72409;BME280;60402;48.082;11.628;2023-05-12T05:17:56;95025.94;;;9.51;100.00
72409;BME280;60402;48.082;11.628;2023-05-12T05:20:41;95036.56;;;9.85;100.00
72409;BME280;60402;48.082;11.628;2023-05-12T05:23:28;95024.25;;;10.05;100.00
72409;BME280;60402;48.082;11.628;2023-05-12T05:26:13;95038.69;;;10.19;100.00
72409;BME280;60402;48.082;11.628;2023-05-12T05:28:59;95031.72;;;10.24;100.00
72409;BME280;60402;48.082;11.628;2023-05-12T05:31:45;95030.94;;;10.36;100.00
72409;BME280;60402;48.082;11.628;2023-05-12T05:34:31;95033.66;;;10.40;100.00
72409;BME280;60402;48.082;11.628;2023-05-12T05:37:17;95021.56;;;10.27;100.00
72409;BME280;60402;48.082;11.628;2023-05-12T05:40:03;95046.81;;;10.56;100.00
72409;BME280;60402;48.082;11.628;2023-05-12T05:42:49;95039.41;;;9.98;100.00
72409;BME280;60402;48.082;11.628;2023-05-12T05:45:35;95032.38;;;10.15;100.00
72409;BME280;60402;48.082;11.628;2023-05-12T05:48:21;95036.00;;;10.41;100.00
72409;BME280;60402;48.082;11.628;2023-05-12T05:51:07;95049.09;;;10.48;100.00
72409;BME280;60402;48.082;11.628;2023-05-12T05:53:56;95045.19;;;10.67;100.00
72409;BME280;60402;48.082;11.628;2023-05-12T05:56:42;95038.75;;;10.67;100.00
72409;BME280;60402;48.082;11.628;2023-05-12T05:59:28;95046.00;;;10.68;100.00
72409;BME280;60402;48.082;11.628;2023-05-12T06:02:13;95032.44;;;10.63;100.00
72409;BME280;60402;48.082;11.628;2023-05-12T06:04:59;95032.41;;;10.28;100.00
72409;BME280;60402;48.082;11.628;2023-05-12T06:07:45;95052.63;;;10.27;100.00
72409;BME280;60402;48.082;11.628;2023-05-12T06:10:31;95046.16;;;10.13;100.00
72409;BME280;60402;48.082;11.628;2023-05-12T06:13:16;95038.25;;;9.95;100.00
72409;BME280;60402;48.082;11.628;2023-05-12T06:16:02;95050.34;;;9.96;100.00
72409;BME280;60402;48.082;11.628;2023-05-12T06:18:48;95056.13;;;10.31;100.00
72409;BME280;60402;48.082;11.628;2023-05-12T06:21:33;95042.66;;;10.35;100.00
72409;BME280;60402;48.082;11.628;2023-05-12T06:24:19;95053.72;;;10.04;100.00
72409;BME280;60402;48.082;11.628;2023-05-12T06:27:05;95059.59;;;9.96;100.00
72409;BME280;60402;48.082;11.628;2023-05-12T06:29:51;95062.19;;;9.91;100.00
72409;BME280;60402;48.082;11.628;2023-05-12T06:32:36;95047.97;;;10.07;100.00
72409;BME280;60402;48.082;11.628;2023-05-12T06:35:22;95065.94;;;10.39;100.00
72409;BME280;60402;48.082;11.628;2023-05-12T06:38:08;95052.03;;;10.06;100.00
72409;BME280;60402;48.082;11.628;2023-05-12T06:40:53;95054.53;;;10.17;100.00
72409;BME280;60402;48.082;11.628;2023-05-12T06:43:39;95049.44;;;10.12;100.00
72409;BME280;60402;48.082;11.628;2023-05-12T06:46:25;95055.53;;;10.10;100.00
72409;BME280;60402;48.082;11.628;2023-05-12T06:49:10;95073.94;;;10.15;100.00
72409;BME280;60402;48.082;11.628;2023-05-12T06:51:56;95069.88;;;10.54;100.00
72409;BME280;60402;48.082;11.628;2023-05-12T06:54:41;95050.63;;;11.09;100.00
72409;BME280;60402;48.082;11.628;2023-05-12T06:57:27;95051.50;;;11.41;100.00
72409;BME280;60402;48.082;11.628;2023-05-12T07:00:13;95063.25;;;12.05;100.00
72409;BME280;60402;48.082;11.628;2023-05-12T07:02:59;95058.13;;;11.69;100.00
72409;BME280;60402;48.082;11.628;2023-05-12T07:05:44;95073.53;;;12.21;100.00
72409;BME280;60402;48.082;11.628;2023-05-12T07:08:30;95053.66;;;11.59;100.00
72409;BME280;60402;48.082;11.628;2023-05-12T07:11:16;95063.97;;;11.74;100.00
72409;BME280;60402;48.082;11.628;2023-05-12T07:14:04;95060.97;;;11.91;100.00
72409;BME280;60402;48.082;11.628;2023-05-12T07:16:50;95054.69;;;11.74;100.00
72409;BME280;60402;48.082;11.628;2023-05-12T07:19:36;95074.56;;;12.05;100.00
72409;BME280;60402;48.082;11.628;2023-05-12T07:22:23;95070.38;;;11.66;100.00
72409;BME280;60402;48.082;11.628;2023-05-12T07:25:09;95074.41;;;12.09;100.00
72409;BME280;60402;48.082;11.628;2023-05-12T07:27:55;95049.72;;;12.49;100.00
72409;BME280;60402;48.082;11.628;2023-05-12T07:30:41;95058.34;;;12.46;100.00
72409;BME280;60402;48.082;11.628;2023-05-12T07:33:27;95064.03;;;12.46;100.00
72409;BME280;60402;48.082;11.628;2023-05-12T07:36:13;95058.78;;;12.75;100.00
72409;BME280;60402;48.082;11.628;2023-05-12T07:38:59;95053.13;;;12.35;100.00
72409;BME280;60402;48.082;11.628;2023-05-12T07:41:44;95057.38;;;12.31;100.00
72409;BME280;60402;48.082;11.628;2023-05-12T07:44:30;95066.59;;;12.53;100.00
72409;BME280;60402;48.082;11.628;2023-05-12T07:47:17;95080.81;;;12.71;100.00
72409;BME280;60402;48.082;11.628;2023-05-12T07:50:03;95064.09;;;12.64;100.00
72409;BME280;60402;48.082;11.628;2023-05-12T07:52:51;95070.16;;;12.44;100.00
72409;BME280;60402;48.082;11.628;2023-05-12T07:55:37;95058.03;;;13.12;100.00
72409;BME280;60402;48.082;11.628;2023-05-12T07:58:23;95066.72;;;13.45;100.00
72409;BME280;60402;48.082;11.628;2023-05-12T08:01:09;95067.03;;;13.74;100.00
72409;BME280;60402;48.082;11.628;2023-05-12T08:03:54;95052.38;;;13.39;100.00
72409;BME280;60402;48.082;11.628;2023-05-12T08:06:40;95066.25;;;13.74;100.00
72409;BME280;60402;48.082;11.628;2023-05-12T08:09:26;95055.78;;;13.98;99.77
72409;BME280;60402;48.082;11.628;2023-05-12T08:12:11;95049.00;;;13.87;99.06
72409;BME280;60402;48.082;11.628;2023-05-12T08:14:57;95074.81;;;12.69;99.00
72409;BME280;60402;48.082;11.628;2023-05-12T08:17:43;95074.31;;;13.39;100.00
72409;BME280;60402;48.082;11.628;2023-05-12T08:20:29;95068.97;;;13.32;100.00
72409;BME280;60402;48.082;11.628;2023-05-12T08:23:16;95074.97;;;12.75;98.62
72409;BME280;60402;48.082;11.628;2023-05-12T08:26:02;95080.22;;;12.86;99.64
72409;BME280;60402;48.082;11.628;2023-05-12T08:28:48;95069.84;;;13.01;99.45
72409;BME280;60402;48.082;11.628;2023-05-12T08:31:34;95059.03;;;13.36;99.40
72409;BME280;60402;48.082;11.628;2023-05-12T08:34:20;95064.56;;;12.63;100.00
72409;BME280;60402;48.082;11.628;2023-05-12T08:37:05;95058.06;;;12.44;100.00
72409;BME280;60402;48.082;11.628;2023-05-12T08:39:51;95082.88;;;12.80;100.00
72409;BME280;60402;48.082;11.628;2023-05-12T08:42:42;95066.09;;;12.05;100.00
72409;BME280;60402;48.082;11.628;2023-05-12T08:45:28;95065.59;;;12.07;100.00
72409;BME280;60402;48.082;11.628;2023-05-12T08:48:16;95074.00;;;12.19;100.00
72409;BME280;60402;48.082;11.628;2023-05-12T08:51:05;95076.06;;;12.68;100.00
72409;BME280;60402;48.082;11.628;2023-05-12T08:53:56;95064.03;;;12.46;100.00
72409;BME280;60402;48.082;11.628;2023-05-12T08:56:42;95076.56;;;11.73;100.00
72409;BME280;60402;48.082;11.628;2023-05-12T08:59:30;95077.22;;;11.56;100.00
72409;BME280;60402;48.082;11.628;2023-05-12T09:02:16;95069.31;;;11.72;100.00
72409;BME280;60402;48.082;11.628;2023-05-12T09:05:03;95063.25;;;12.05;100.00
72409;BME280;60402;48.082;11.628;2023-05-12T09:07:49;95073.63;;;12.39;100.00
72409;BME280;60402;48.082;11.628;2023-05-12T09:10:36;95067.91;;;11.99;100.00
72409;BME280;60402;48.082;11.628;2023-05-12T09:16:14;95084.09;;;12.20;100.00
72409;BME280;60402;48.082;11.628;2023-05-12T09:19:02;95086.78;;;12.24;100.00
72409;BME280;60402;48.082;11.628;2023-05-12T09:21:48;95071.25;;;12.38;100.00
72409;BME280;60402;48.082;11.628;2023-05-12T09:24:35;95072.09;;;12.47;100.00
72409;BME280;60402;48.082;11.628;2023-05-12T09:27:25;95076.44;;;12.39;100.00
72409;BME280;60402;48.082;11.628;2023-05-12T09:30:12;95074.91;;;12.47;100.00
72409;BME280;60402;48.082;11.628;2023-05-12T09:33:11;95084.47;;;12.41;100.00
72409;BME280;60402;48.082;11.628;2023-05-12T09:35:58;95067.44;;;12.32;100.00
72409;BME280;60402;48.082;11.628;2023-05-12T09:38:44;95088.22;;;12.28;100.00
72409;BME280;60402;48.082;11.628;2023-05-12T09:41:34;95093.16;;;11.84;100.00
72409;BME280;60402;48.082;11.628;2023-05-12T09:44:20;95079.28;;;12.39;100.00
72409;BME280;60402;48.082;11.628;2023-05-12T09:47:07;95087.13;;;12.35;100.00
72409;BME280;60402;48.082;11.628;2023-05-12T09:49:54;95076.78;;;12.50;100.00
72409;BME280;60402;48.082;11.628;2023-05-12T09:52:42;95082.16;;;12.48;100.00
72409;BME280;60402;48.082;11.628;2023-05-12T09:55:27;95075.19;;;12.40;100.00
72409;BME280;60402;48.082;11.628;2023-05-12T09:58:18;95081.41;;;12.57;100.00
72409;BME280;60402;48.082;11.628;2023-05-12T10:01:04;95088.59;;;12.49;100.00
72409;BME280;60402;48.082;11.628;2023-05-12T10:03:51;95065.78;;;12.52;100.00
72409;BME280;60402;48.082;11.628;2023-05-12T10:06:40;95089.16;;;12.75;100.00
72409;BME280;60402;48.082;11.628;2023-05-12T10:09:31;95083.63;;;12.62;100.00
72409;BME280;60402;48.082;11.628;2023-05-12T10:12:20;95070.53;;;12.65;100.00
72409;BME280;60402;48.082;11.628;2023-05-12T10:15:08;95073.59;;;12.89;97.76
72409;BME280;60402;48.082;11.628;2023-05-12T10:17:55;95085.16;;;12.54;97.17
72409;BME280;60402;48.082;11.628;2023-05-12T10:20:43;95084.63;;;12.37;98.64
72409;BME280;60402;48.082;11.628;2023-05-12T10:23:32;95093.78;;;12.91;98.67
72409;BME280;60402;48.082;11.628;2023-05-12T10:26:19;95077.94;;;12.62;96.57
72409;BME280;60402;48.082;11.628;2023-05-12T10:29:06;95086.31;;;12.66;95.63
72409;BME280;60402;48.082;11.628;2023-05-12T10:31:52;95089.16;;;12.66;96.58
72409;BME280;60402;48.082;11.628;2023-05-12T10:34:39;95099.63;;;12.47;96.43
72409;BME280;60402;48.082;11.628;2023-05-12T10:37:27;95099.56;;;12.28;96.17
72409;BME280;60402;48.082;11.628;2023-05-12T10:40:22;95086.31;;;12.75;95.00
72409;BME280;60402;48.082;11.628;2023-05-12T10:43:19;95089.38;;;12.90;94.80
72409;BME280;60402;48.082;11.628;2023-05-12T10:49:09;95093.00;;;12.99;97.09
72409;BME280;60402;48.082;11.628;2023-05-12T10:52:00;95087.31;;;12.90;94.83
72409;BME280;60402;48.082;11.628;2023-05-12T10:54:46;95086.88;;;13.19;95.07
72409;BME280;60402;48.082;11.628;2023-05-12T10:57:32;95091.50;;;13.44;94.34
72409;BME280;60402;48.082;11.628;2023-05-12T11:00:21;95093.25;;;13.60;92.77
72409;BME280;60402;48.082;11.628;2023-05-12T11:03:15;95095.44;;;13.56;94.75
72409;BME280;60402;48.082;11.628;2023-05-12T11:06:03;95092.25;;;13.08;97.20
72409;BME280;60402;48.082;11.628;2023-05-12T11:08:49;95102.03;;;13.25;95.33
72409;BME280;60402;48.082;11.628;2023-05-12T11:11:34;95090.69;;;13.25;95.49
72409;BME280;60402;48.082;11.628;2023-05-12T11:14:20;95088.38;;;12.84;96.80
72409;BME280;60402;48.082;11.628;2023-05-12T11:17:06;95099.41;;;12.82;97.65
72409;BME280;60402;48.082;11.628;2023-05-12T11:19:53;95089.19;;;12.93;98.21
72409;BME280;60402;48.082;11.628;2023-05-12T11:22:40;95102.13;;;12.94;97.77
72409;BME280;60402;48.082;11.628;2023-05-12T11:25:26;95099.47;;;13.00;96.86
72409;BME280;60402;48.082;11.628;2023-05-12T11:28:12;95100.72;;;12.90;96.23
72409;BME280;60402;48.082;11.628;2023-05-12T11:30:58;95095.84;;;12.99;96.27
72409;BME280;60402;48.082;11.628;2023-05-12T11:33:44;95111.13;;;13.11;98.12
72409;BME280;60402;48.082;11.628;2023-05-12T11:36:42;95094.88;;;12.93;97.10
72409;BME280;60402;48.082;11.628;2023-05-12T11:39:29;95096.88;;;12.74;99.64
72409;BME280;60402;48.082;11.628;2023-05-12T11:42:17;95101.19;;;12.97;94.80
72409;BME280;60402;48.082;11.628;2023-05-12T11:45:03;95100.53;;;12.93;95.77
72409;BME280;60402;48.082;11.628;2023-05-12T11:47:52;95102.16;;;13.13;96.03
72409;BME280;60402;48.082;11.628;2023-05-12T11:50:42;95087.81;;;13.07;95.88
72409;BME280;60402;48.082;11.628;2023-05-12T11:53:28;95115.94;;;13.23;94.29
72409;BME280;60402;48.082;11.628;2023-05-12T11:56:21;95101.25;;;13.34;95.96
72409;BME280;60402;48.082;11.628;2023-05-12T11:59:08;95097.50;;;13.55;94.55
72409;BME280;60402;48.082;11.628;2023-05-12T12:01:54;95099.00;;;13.11;94.03
72409;BME280;60402;48.082;11.628;2023-05-12T12:04:40;95105.16;;;13.09;94.37
72409;BME280;60402;48.082;11.628;2023-05-12T12:07:36;95116.72;;;13.24;95.58
72409;BME280;60402;48.082;11.628;2023-05-12T12:10:22;95114.69;;;13.52;94.46
72409;BME280;60402;48.082;11.628;2023-05-12T12:13:08;95107.72;;;13.35;94.77
72409;BME280;60402;48.082;11.628;2023-05-12T12:15:53;95117.34;;;13.28;96.38
72409;BME280;60402;48.082;11.628;2023-05-12T12:18:39;95093.34;;;13.20;95.59
72409;BME280;60402;48.082;11.628;2023-05-12T12:21:24;95101.22;;;13.16;94.21
72409;BME280;60402;48.082;11.628;2023-05-12T12:24:10;95106.75;;;13.19;94.66
72409;BME280;60402;48.082;11.628;2023-05-12T12:26:56;95104.56;;;13.23;95.68
72409;BME280;60402;48.082;11.628;2023-05-12T12:29:41;95111.50;;;13.41;93.10
72409;BME280;60402;48.082;11.628;2023-05-12T12:32:27;95113.53;;;13.22;91.89
72409;BME280;60402;48.082;11.628;2023-05-12T12:35:13;95106.66;;;13.41;93.99
72409;BME280;60402;48.082;11.628;2023-05-12T12:37:59;95099.53;;;13.64;92.54
72409;BME280;60402;48.082;11.628;2023-05-12T12:40:45;95096.19;;;13.20;94.83
72409;BME280;60402;48.082;11.628;2023-05-12T12:43:31;95107.88;;;13.40;93.58
72409;BME280;60402;48.082;11.628;2023-05-12T12:46:17;95086.78;;;13.41;96.13
72409;BME280;60402;48.082;11.628;2023-05-12T12:49:03;95115.94;;;13.69;93.26
72409;BME280;60402;48.082;11.628;2023-05-12T12:51:49;95119.88;;;13.53;96.61
72409;BME280;60402;48.082;11.628;2023-05-12T12:54:35;95094.31;;;13.81;94.94
72409;BME280;60402;48.082;11.628;2023-05-12T12:57:20;95108.34;;;13.75;93.91
72409;BME280;60402;48.082;11.628;2023-05-12T13:00:07;95106.78;;;13.74;92.11
72409;BME280;60402;48.082;11.628;2023-05-12T13:02:54;95120.66;;;13.72;93.86
72409;BME280;60402;48.082;11.628;2023-05-12T13:05:40;95111.34;;;13.53;95.44
72409;BME280;60402;48.082;11.628;2023-05-12T13:08:26;95112.47;;;13.65;94.76
72409;BME280;60402;48.082;11.628;2023-05-12T13:11:12;95080.75;;;13.58;94.36
72409;BME280;60402;48.082;11.628;2023-05-12T13:13:57;95096.63;;;14.01;92.19
72409;BME280;60402;48.082;11.628;2023-05-12T13:16:44;95106.44;;;14.00;88.61
72409;BME280;60402;48.082;11.628;2023-05-12T13:19:29;95111.03;;;13.88;93.83
72409;BME280;60402;48.082;11.628;2023-05-12T13:22:15;95104.09;;;13.80;93.26
72409;BME280;60402;48.082;11.628;2023-05-12T13:25:01;95110.53;;;13.99;93.07
72409;BME280;60402;48.082;11.628;2023-05-12T13:27:46;95094.00;;;13.70;91.41
72409;BME280;60402;48.082;11.628;2023-05-12T13:30:32;95095.41;;;13.84;91.86
72409;BME280;60402;48.082;11.628;2023-05-12T13:33:18;95099.38;;;13.68;91.30
72409;BME280;60402;48.082;11.628;2023-05-12T13:36:04;95106.66;;;13.50;92.35
72409;BME280;60402;48.082;11.628;2023-05-12T13:38:50;95099.69;;;13.42;94.02
72409;BME280;60402;48.082;11.628;2023-05-12T13:41:36;95113.88;;;13.42;97.33
72409;BME280;60402;48.082;11.628;2023-05-12T13:44:21;95106.47;;;13.36;99.90
72409;BME280;60402;48.082;11.628;2023-05-12T13:47:07;95101.22;;;13.16;99.84
72409;BME280;60402;48.082;11.628;2023-05-12T13:49:53;95111.81;;;13.24;100.00
72409;BME280;60402;48.082;11.628;2023-05-12T13:52:40;95114.75;;;13.02;100.00
72409;BME280;60402;48.082;11.628;2023-05-12T13:55:26;95114.59;;;13.06;100.00
72409;BME280;60402;48.082;11.628;2023-05-12T13:58:12;95116.47;;;13.00;100.00
72409;BME280;60402;48.082;11.628;2023-05-12T14:00:57;95112.69;;;12.94;100.00
72409;BME280;60402;48.082;11.628;2023-05-12T14:03:43;95114.09;;;12.98;100.00
72409;BME280;60402;48.082;11.628;2023-05-12T14:06:29;95109.06;;;13.02;100.00
72409;BME280;60402;48.082;11.628;2023-05-12T14:09:16;95105.66;;;13.35;100.00
72409;BME280;60402;48.082;11.628;2023-05-12T14:12:02;95106.31;;;13.67;100.00
72409;BME280;60402;48.082;11.628;2023-05-12T14:14:48;95111.06;;;13.70;100.00
72409;BME280;60402;48.082;11.628;2023-05-12T14:17:34;95097.16;;;13.35;100.00
72409;BME280;60402;48.082;11.628;2023-05-12T14:20:21;95098.72;;;13.18;100.00
72409;BME280;60402;48.082;11.628;2023-05-12T14:23:06;95096.53;;;13.31;100.00
72409;BME280;60402;48.082;11.628;2023-05-12T14:25:52;95103.88;;;13.10;100.00
72409;BME280;60402;48.082;11.628;2023-05-12T14:28:38;95110.91;;;13.37;100.00
72409;BME280;60402;48.082;11.628;2023-05-12T14:31:23;95117.59;;;13.12;100.00